createdAt,value
2018-12-26T00:02:04.405Z,2.20
2018-12-26T00:04:33.559Z,1.82
2018-12-26T00:07:02.869Z,2.08
2018-12-26T00:09:32.068Z,1.97
2018-12-26T00:12:00.234Z,2.10
2018-12-26T00:14:28.492Z,2.40
2018-12-26T00:16:58.927Z,2.10
2018-12-26T00:19:27.024Z,2.20
2018-12-26T00:21:55.079Z,2.25
2018-12-26T00:24:26.010Z,2.35
2018-12-26T00:26:54.641Z,2.12
2018-12-26T00:29:24.442Z,2.30
2018-12-26T00:31:53.612Z,2.55
2018-12-26T00:34:21.704Z,2.45
2018-12-26T00:36:51.417Z,2.30
2018-12-26T00:39:19.507Z,2.30
2018-12-26T00:41:47.946Z,1.92
2018-12-26T00:44:16.621Z,2.35
2018-12-26T00:46:44.730Z,2.10
2018-12-26T00:49:14.045Z,2.08
2018-12-26T00:51:42.113Z,2.30
2018-12-26T00:54:10.158Z,1.95
2018-12-26T00:56:38.472Z,2.80
2018-12-26T00:59:06.853Z,2.12
2018-12-26T01:01:34.937Z,2.45
2018-12-26T01:04:03.850Z,2.40
2018-12-26T01:06:31.872Z,2.00
2018-12-26T01:08:59.928Z,2.50
2018-12-26T01:11:28.266Z,2.27
2018-12-26T01:13:57.077Z,2.10
2018-12-26T01:16:25.100Z,2.20
2018-12-26T01:18:53.213Z,2.20
2018-12-26T01:21:21.291Z,2.22
2018-12-26T01:23:49.762Z,2.30
2018-12-26T01:26:19.259Z,2.30
2018-12-26T01:28:48.010Z,2.17
2018-12-26T01:31:16.102Z,2.05
2018-12-26T01:33:44.160Z,2.02
2018-12-26T01:36:12.233Z,2.25
2018-12-26T01:38:40.554Z,2.08
2018-12-26T01:41:08.992Z,2.22
2018-12-26T01:43:37.178Z,1.98
2018-12-26T01:46:05.282Z,2.35
2018-12-26T01:48:33.399Z,2.00
2018-12-26T01:51:02.636Z,2.15
2018-12-26T01:53:31.842Z,2.17
2018-12-26T01:55:59.934Z,2.15
2018-12-26T01:58:27.941Z,2.12
2018-12-26T02:00:56.044Z,2.08
2018-12-26T02:03:25.735Z,2.08
2018-12-26T02:05:53.775Z,2.10
2018-12-26T02:08:21.859Z,2.12
2018-12-26T02:10:50.323Z,2.22
2018-12-26T02:13:18.523Z,2.30
2018-12-26T02:15:48.386Z,2.15
2018-12-26T02:18:17.414Z,2.10
2018-12-26T02:20:46.178Z,1.90
2018-12-26T02:23:14.690Z,2.05
2018-12-26T02:25:42.766Z,2.25
2018-12-26T02:28:10.846Z,2.50
2018-12-26T02:30:38.884Z,2.17
2018-12-26T02:33:06.948Z,2.25
2018-12-26T02:35:36.032Z,2.35
2018-12-26T02:38:04.169Z,2.20
2018-12-26T02:40:32.258Z,2.40
2018-12-26T02:43:00.411Z,2.37
2018-12-26T02:45:28.784Z,2.15
2018-12-26T02:47:57.000Z,2.17
2018-12-26T02:50:26.109Z,2.37
2018-12-26T02:52:55.936Z,2.35
2018-12-26T02:55:24.445Z,2.22
2018-12-26T02:57:52.533Z,2.12
2018-12-26T03:00:21.191Z,1.98
2018-12-26T03:02:51.509Z,1.98
2018-12-26T03:05:19.599Z,2.20
2018-12-26T03:07:48.155Z,2.47
2018-12-26T03:10:16.595Z,2.33
2018-12-26T03:12:44.645Z,2.10
2018-12-26T03:15:12.808Z,2.08
2018-12-26T03:17:40.942Z,1.80
2018-12-26T03:20:09.012Z,1.87
2018-12-26T03:22:37.410Z,2.52
2018-12-26T03:25:05.603Z,1.87
2018-12-26T03:27:34.243Z,1.90
2018-12-26T03:30:02.881Z,1.92
2018-12-26T03:32:32.140Z,1.82
2018-12-26T03:35:00.656Z,1.82
2018-12-26T03:37:29.003Z,2.20
2018-12-26T03:39:57.175Z,2.08
2018-12-26T03:42:27.451Z,1.98
2018-12-26T03:44:56.598Z,2.10
2018-12-26T03:47:25.455Z,2.20
2018-12-26T03:49:53.635Z,2.12
2018-12-26T03:52:21.662Z,1.75
2018-12-26T03:54:49.833Z,2.00
2018-12-26T03:57:18.010Z,1.90
2018-12-26T03:59:46.150Z,2.27
2018-12-26T04:02:14.299Z,2.25
2018-12-26T04:04:43.781Z,2.08
2018-12-26T04:07:11.808Z,2.17
2018-12-26T04:09:40.411Z,2.35
2018-12-26T04:12:08.449Z,1.90
2018-12-26T04:14:36.472Z,1.95
2018-12-26T04:17:04.478Z,2.35
2018-12-26T04:19:32.607Z,2.12
2018-12-26T04:22:00.807Z,1.95
2018-12-26T04:24:30.087Z,2.17
2018-12-26T04:26:58.194Z,2.12
2018-12-26T04:29:27.727Z,2.40
2018-12-26T04:31:57.533Z,2.15
2018-12-26T04:34:27.353Z,1.77
2018-12-26T04:36:55.753Z,1.90
2018-12-26T04:39:23.784Z,1.92
2018-12-26T04:41:51.888Z,2.08
2018-12-26T04:44:20.341Z,1.85
2018-12-26T04:46:48.371Z,1.60
2018-12-26T04:49:16.440Z,1.82
2018-12-26T04:51:44.514Z,1.98
2018-12-26T04:54:12.602Z,2.20
2018-12-26T04:56:40.632Z,2.00
2018-12-26T04:59:08.661Z,2.08
2018-12-26T05:01:43.094Z,2.30
2018-12-26T05:10:12.974Z,2.10
2018-12-26T05:12:41.041Z,2.25
2018-12-26T05:15:11.037Z,1.50
2018-12-26T05:17:39.102Z,2.10
2018-12-26T05:20:07.346Z,2.27
2018-12-26T05:22:35.391Z,1.85
2018-12-26T05:25:03.995Z,1.95
2018-12-26T05:27:34.269Z,1.92
2018-12-26T05:30:03.283Z,2.30
2018-12-26T05:32:31.506Z,2.15
2018-12-26T05:34:59.560Z,2.10
2018-12-26T05:37:27.606Z,2.10
2018-12-26T05:39:55.672Z,2.08
2018-12-26T05:42:23.709Z,2.20
2018-12-26T05:44:52.081Z,2.30
2018-12-26T05:47:20.660Z,1.92
2018-12-26T05:49:48.847Z,2.00
2018-12-26T05:52:17.005Z,2.22
2018-12-26T05:54:45.073Z,2.30
2018-12-26T05:57:13.076Z,1.82
2018-12-26T05:59:41.133Z,2.00
2018-12-26T06:02:09.233Z,2.47
2018-12-26T06:04:37.634Z,1.57
2018-12-26T06:07:05.943Z,2.00
2018-12-26T06:09:33.996Z,2.20
2018-12-26T06:12:03.442Z,2.02
2018-12-26T06:14:32.511Z,2.08
2018-12-26T06:17:01.629Z,2.05
2018-12-26T06:19:29.705Z,2.12
2018-12-26T06:21:57.758Z,2.05
2018-12-26T06:24:25.818Z,1.98
2018-12-26T06:26:53.865Z,2.10
2018-12-26T06:29:22.367Z,2.27
2018-12-26T06:31:51.088Z,2.50
2018-12-26T06:34:19.279Z,2.17
2018-12-26T06:36:47.306Z,1.92
2018-12-26T06:39:16.283Z,1.82
2018-12-26T06:41:46.810Z,2.52
2018-12-26T06:44:14.929Z,2.22
2018-12-26T06:46:43.342Z,1.87
2018-12-26T06:49:11.457Z,1.93
2018-12-26T06:51:39.488Z,2.22
2018-12-26T06:54:07.544Z,2.27
2018-12-26T06:56:35.557Z,2.13
2018-12-26T06:59:04.410Z,2.00
2018-12-26T07:01:32.477Z,1.90
2018-12-26T07:04:01.077Z,2.08
2018-12-26T07:06:29.113Z,1.90
2018-12-26T07:08:57.471Z,1.90
2018-12-26T07:11:25.695Z,1.97
2018-12-26T07:13:53.686Z,2.07
2018-12-26T07:16:21.734Z,2.33
2018-12-26T07:18:50.081Z,2.27
2018-12-26T07:21:18.248Z,2.17
2018-12-26T07:23:48.370Z,2.03
2018-12-26T07:26:17.528Z,1.87
2018-12-26T07:28:46.776Z,2.05
2018-12-26T07:31:16.639Z,1.98
2018-12-26T07:33:44.658Z,2.20
2018-12-26T07:36:12.757Z,2.20
2018-12-26T07:38:40.961Z,2.08
2018-12-26T07:41:09.125Z,2.52
2018-12-26T07:43:38.928Z,2.22
2018-12-26T07:46:07.208Z,1.82
2018-12-26T07:48:35.304Z,2.33
2018-12-26T07:51:03.347Z,2.05
2018-12-26T07:53:31.687Z,1.87
2018-12-26T07:55:59.764Z,2.05
2018-12-26T07:58:28.187Z,1.80
2018-12-26T08:00:56.273Z,1.83
2018-12-26T08:03:24.383Z,1.97
2018-12-26T08:05:52.639Z,2.00
2018-12-26T08:08:20.844Z,1.97
2018-12-26T08:10:50.283Z,2.15
2018-12-26T08:13:18.275Z,2.50
2018-12-26T08:15:46.375Z,2.00
2018-12-26T08:18:14.649Z,2.00
2018-12-26T08:20:42.691Z,2.02
2018-12-26T08:23:10.895Z,2.12
2018-12-26T08:25:38.997Z,2.10
2018-12-26T08:28:07.277Z,2.08
2018-12-26T08:30:35.391Z,1.90
2018-12-26T08:33:03.416Z,2.30
2018-12-26T08:35:33.245Z,2.17
2018-12-26T08:38:01.347Z,2.30
2018-12-26T08:40:29.377Z,2.12
2018-12-26T08:42:57.801Z,2.10
2018-12-26T08:45:26.015Z,2.00
2018-12-26T08:47:54.098Z,1.80
2018-12-26T08:50:22.522Z,1.97
2018-12-26T08:52:50.533Z,2.10
2018-12-26T08:55:18.603Z,2.20
2018-12-26T08:57:46.627Z,1.97
2018-12-26T09:00:14.788Z,1.80
2018-12-26T09:02:43.173Z,2.33
2018-12-26T09:05:11.591Z,2.10
2018-12-26T09:07:39.980Z,2.50
2018-12-26T09:10:09.042Z,1.92
2018-12-26T09:12:37.365Z,1.97
2018-12-26T09:15:05.993Z,1.98
2018-12-26T09:17:34.012Z,1.90
2018-12-26T09:20:02.629Z,1.93
2018-12-26T09:22:30.726Z,3.03
2018-12-26T09:24:58.770Z,2.83
2018-12-26T09:27:27.365Z,2.58
2018-12-26T09:29:55.365Z,2.10
2018-12-26T09:32:23.433Z,2.27
2018-12-26T09:34:51.518Z,2.30
2018-12-26T09:37:19.882Z,2.00
2018-12-26T09:39:47.973Z,2.15
2018-12-26T09:42:16.058Z,1.87
2018-12-26T09:44:44.560Z,2.10
2018-12-26T09:47:13.033Z,1.60
2018-12-26T09:49:41.144Z,1.80
2018-12-26T09:52:09.579Z,1.80
2018-12-26T09:54:37.773Z,1.77
2018-12-26T09:57:06.203Z,2.03
2018-12-26T09:59:34.567Z,2.40
2018-12-26T10:02:02.756Z,2.00
2018-12-26T10:04:30.841Z,2.20
2018-12-26T10:06:58.913Z,1.80
2018-12-26T10:09:26.960Z,1.60
2018-12-26T10:11:55.684Z,1.92
2018-12-26T10:14:23.765Z,2.00
2018-12-26T10:16:51.874Z,1.75
2018-12-26T10:19:19.934Z,1.92
2018-12-26T10:21:48.413Z,1.80
2018-12-26T10:24:16.437Z,2.20
2018-12-26T10:26:44.842Z,2.00
2018-12-26T10:29:12.879Z,1.70
2018-12-26T10:31:40.944Z,1.70
2018-12-26T10:34:09.058Z,1.92
2018-12-26T10:36:37.056Z,2.17
2018-12-26T10:39:06.520Z,2.10
2018-12-26T10:41:35.521Z,1.97
2018-12-26T10:44:03.610Z,1.97
2018-12-26T10:46:31.732Z,2.33
2018-12-26T10:48:59.836Z,2.00
2018-12-26T10:51:27.938Z,1.93
2018-12-26T10:53:56.271Z,2.00
2018-12-26T10:56:24.307Z,2.07
2018-12-26T10:58:52.534Z,2.93
2018-12-26T11:01:20.599Z,2.20
2018-12-26T11:03:48.710Z,2.05
2018-12-26T11:06:17.441Z,1.93
2018-12-26T11:08:45.688Z,2.72
2018-12-26T11:11:13.740Z,2.57
2018-12-26T11:13:41.797Z,2.40
2018-12-26T11:16:10.160Z,2.27
2018-12-26T11:18:38.342Z,2.27
2018-12-26T11:21:06.403Z,2.30
2018-12-26T11:23:34.488Z,2.10
2018-12-26T11:26:02.635Z,2.08
2018-12-26T11:28:30.723Z,2.00
2018-12-26T11:30:58.779Z,2.13
2018-12-26T11:33:27.284Z,1.63
2018-12-26T11:35:55.602Z,2.27
2018-12-26T11:38:24.746Z,2.20
2018-12-26T11:40:52.801Z,2.00
2018-12-26T11:43:20.862Z,2.10
2018-12-26T11:45:49.615Z,2.00
2018-12-26T11:48:17.701Z,1.77
2018-12-26T11:50:46.069Z,2.10
2018-12-26T11:53:14.147Z,2.20
2018-12-26T11:55:42.206Z,2.03
2018-12-26T11:58:10.352Z,2.13
2018-12-26T12:00:38.390Z,2.37
2018-12-26T12:03:06.486Z,2.37
2018-12-26T12:05:34.539Z,2.47
2018-12-26T12:08:02.780Z,2.43
2018-12-26T12:10:31.105Z,2.57
2018-12-26T12:12:59.488Z,2.37
2018-12-26T12:15:27.562Z,2.17
2018-12-26T12:17:55.632Z,2.10
2018-12-26T12:20:24.205Z,2.20
2018-12-26T12:22:52.238Z,2.40
2018-12-26T12:25:21.755Z,2.20
2018-12-26T12:27:49.823Z,2.47
2018-12-26T12:30:17.939Z,2.13
2018-12-26T12:32:45.997Z,2.07
2018-12-26T12:35:14.105Z,2.27
2018-12-26T12:37:42.601Z,2.00
2018-12-26T12:40:11.579Z,2.07
2018-12-26T12:42:39.633Z,2.47
2018-12-26T12:45:07.749Z,2.27
2018-12-26T12:47:35.887Z,2.37
2018-12-26T12:50:04.413Z,2.30
2018-12-26T12:52:32.784Z,2.63
2018-12-26T12:55:00.910Z,2.50
2018-12-26T12:57:30.160Z,2.30
2018-12-26T12:59:58.281Z,2.47
2018-12-26T13:02:26.321Z,2.43
2018-12-26T13:04:54.415Z,2.30
2018-12-26T13:07:22.517Z,2.40
2018-12-26T13:09:50.644Z,2.67
2018-12-26T13:12:18.722Z,1.90
2018-12-26T13:14:46.791Z,2.10
2018-12-26T13:17:14.868Z,2.33
2018-12-26T13:19:44.368Z,2.20
2018-12-26T13:22:12.459Z,2.40
2018-12-26T13:24:40.570Z,2.30
2018-12-26T13:27:08.641Z,2.50
2018-12-26T13:29:37.056Z,2.27
2018-12-26T13:32:05.129Z,2.43
2018-12-26T13:34:33.219Z,2.67
2018-12-26T13:37:01.220Z,2.47
2018-12-26T13:39:30.414Z,2.17
2018-12-26T13:41:58.491Z,2.23
2018-12-26T13:44:26.611Z,2.33
2018-12-26T13:46:54.679Z,2.50
2018-12-26T13:49:22.766Z,2.50
2018-12-26T13:51:51.057Z,2.47
2018-12-26T13:54:19.140Z,2.23
2018-12-26T13:56:47.235Z,2.13
2018-12-26T13:59:15.450Z,2.33
2018-12-26T14:01:43.831Z,2.37
2018-12-26T14:04:11.856Z,2.13
2018-12-26T14:06:39.949Z,2.17
2018-12-26T14:09:08.007Z,2.20
2018-12-26T14:11:36.100Z,2.27
2018-12-26T14:14:04.468Z,2.37
2018-12-26T14:16:33.125Z,2.40
2018-12-26T14:19:01.522Z,2.83
2018-12-26T14:21:29.636Z,2.70
2018-12-26T14:23:57.657Z,2.63
2018-12-26T14:26:25.694Z,3.03
2018-12-26T14:28:53.984Z,2.37
2018-12-26T14:31:22.080Z,2.57
2018-12-26T14:33:50.085Z,2.57
2018-12-26T14:36:18.207Z,2.33
2018-12-26T14:38:46.249Z,2.40
2018-12-26T14:41:14.296Z,2.70
2018-12-26T14:43:42.295Z,3.13
2018-12-26T14:46:10.506Z,2.53
2018-12-26T14:48:38.825Z,2.83
2018-12-26T14:51:06.909Z,2.83
2018-12-26T14:53:34.948Z,2.73
2018-12-26T14:56:02.980Z,2.83
2018-12-26T14:58:31.073Z,2.70
2018-12-26T15:00:59.273Z,2.57
2018-12-26T15:03:27.270Z,2.73
2018-12-26T15:05:55.557Z,2.47
2018-12-26T15:08:23.560Z,2.57
2018-12-26T15:10:51.650Z,2.67
2018-12-26T15:13:20.075Z,2.60
2018-12-26T15:15:48.462Z,3.10
2018-12-26T15:18:17.498Z,2.87
2018-12-26T15:20:45.578Z,2.43
2018-12-26T15:23:13.636Z,2.50
2018-12-26T15:25:41.735Z,2.70
2018-12-26T15:28:10.842Z,2.87
2018-12-26T15:30:38.913Z,2.67
2018-12-26T15:33:07.721Z,2.57
2018-12-26T15:35:35.753Z,2.70
2018-12-26T15:38:04.316Z,2.53
2018-12-26T15:40:32.376Z,2.87
2018-12-26T15:43:00.745Z,2.60
2018-12-26T15:45:28.737Z,2.47
2018-12-26T15:47:56.795Z,2.37
2018-12-26T15:50:25.189Z,2.47
2018-12-26T15:52:53.297Z,2.93
2018-12-26T15:55:21.284Z,2.70
2018-12-26T15:57:49.342Z,2.53
2018-12-26T16:00:17.391Z,2.37
2018-12-26T16:02:45.487Z,2.53
2018-12-26T16:05:13.848Z,2.57
2018-12-26T16:07:42.083Z,2.60
2018-12-26T16:10:10.110Z,2.80
2018-12-26T16:12:38.184Z,2.60
2018-12-26T16:15:08.580Z,2.50
2018-12-26T16:17:36.667Z,2.90
2018-12-26T16:20:07.037Z,3.03
2018-12-26T16:22:35.138Z,4.20
2018-12-26T16:25:03.727Z,3.70
2018-12-26T16:27:32.108Z,2.80
2018-12-26T16:30:00.155Z,2.63
2018-12-26T16:32:28.845Z,3.30
2018-12-26T16:34:56.912Z,2.95
2018-12-26T16:37:25.000Z,3.20
2018-12-26T16:39:53.095Z,3.73
2018-12-26T16:42:21.672Z,3.77
2018-12-26T16:44:49.837Z,3.37
2018-12-26T16:47:18.173Z,3.13
2018-12-26T16:49:46.214Z,3.27
2018-12-26T16:52:14.492Z,3.00
2018-12-26T16:54:43.252Z,3.35
2018-12-26T16:57:11.674Z,2.93
2018-12-26T16:59:39.667Z,3.30
2018-12-26T17:02:07.652Z,2.90
2018-12-26T17:04:35.672Z,3.00
2018-12-26T17:07:04.230Z,2.93
2018-12-26T17:09:32.219Z,2.60
2018-12-26T17:12:00.228Z,2.90
2018-12-26T17:14:28.222Z,2.93
2018-12-26T17:16:56.267Z,2.90
2018-12-26T17:19:24.260Z,2.42
2018-12-26T17:21:52.561Z,2.42
2018-12-26T17:24:21.557Z,2.90
2018-12-26T17:26:49.596Z,2.90
2018-12-26T17:29:17.800Z,2.77
2018-12-26T17:31:46.111Z,2.50
2018-12-26T17:34:14.267Z,2.77
2018-12-26T17:36:42.320Z,2.93
2018-12-26T17:39:10.431Z,2.73
2018-12-26T17:41:38.449Z,2.93
2018-12-26T17:44:06.487Z,3.25
2018-12-26T17:46:34.768Z,4.00
2018-12-26T17:49:02.869Z,2.87
2018-12-26T17:51:30.882Z,3.07
2018-12-26T17:54:48.467Z,2.97
2018-12-26T17:57:31.441Z,2.67
2018-12-26T18:00:34.033Z,2.70
2018-12-26T18:03:02.322Z,2.50
2018-12-26T18:05:30.383Z,3.07
2018-12-26T18:07:58.763Z,3.12
2018-12-26T18:10:26.761Z,2.92
2018-12-26T18:12:55.419Z,2.63
2018-12-26T18:15:23.470Z,2.40
2018-12-26T18:17:52.890Z,2.40
2018-12-26T18:20:20.906Z,2.98
2018-12-26T18:22:48.967Z,2.52
2018-12-26T18:25:16.988Z,2.42
2018-12-26T18:27:46.096Z,2.53
2018-12-26T18:30:14.471Z,2.67
2018-12-26T18:32:42.497Z,2.77
2018-12-26T18:35:10.645Z,2.42
2018-12-26T18:37:38.717Z,2.47
2018-12-26T18:40:07.525Z,2.77
2018-12-26T18:42:35.804Z,2.67
2018-12-26T18:45:06.482Z,2.55
2018-12-26T18:47:34.740Z,2.22
2018-12-26T18:50:03.498Z,2.42
2018-12-26T18:52:31.633Z,2.58
2018-12-26T18:55:00.203Z,2.40
2018-12-26T18:57:28.416Z,2.50
2018-12-26T18:59:56.660Z,2.50
2018-12-26T19:02:24.653Z,2.62
2018-12-26T19:04:52.759Z,2.95
2018-12-26T19:07:21.077Z,2.60
2018-12-26T19:09:49.181Z,2.52
2018-12-26T19:12:17.254Z,2.60
2018-12-26T19:14:45.763Z,2.35
2018-12-26T19:17:13.889Z,2.72
2018-12-26T19:19:43.138Z,3.33
2018-12-26T19:22:11.446Z,3.45
2018-12-26T19:24:39.681Z,3.17
2018-12-26T19:27:07.969Z,3.00
2018-12-26T19:29:36.363Z,2.55
2018-12-26T19:32:04.513Z,2.83
2018-12-26T19:34:32.804Z,2.98
2018-12-26T19:37:01.306Z,2.85
2018-12-26T19:39:29.601Z,3.42
2018-12-26T19:41:58.043Z,2.60
2018-12-26T19:44:26.324Z,2.83
2018-12-26T19:46:54.768Z,2.62
2018-12-26T19:49:23.411Z,2.87
2018-12-26T19:51:51.976Z,3.05
2018-12-26T19:54:20.482Z,2.90
2018-12-26T19:56:48.788Z,3.10
2018-12-26T19:59:17.215Z,3.10
2018-12-26T20:01:48.248Z,2.62
2018-12-26T20:04:15.137Z,2.67
2018-12-26T20:06:43.210Z,3.40
2018-12-26T20:09:11.686Z,2.67
2018-12-26T20:11:39.727Z,2.98
2018-12-26T20:14:07.889Z,2.87
2018-12-26T20:16:36.047Z,2.67
2018-12-26T20:19:04.213Z,3.33
2018-12-26T20:21:32.441Z,3.20
2018-12-26T20:24:00.512Z,3.12
2018-12-26T20:26:28.803Z,3.50
2018-12-26T20:28:56.870Z,2.80
2018-12-26T20:31:24.981Z,2.75
2018-12-26T20:33:53.060Z,2.77
2018-12-26T20:36:21.075Z,2.98
2018-12-26T20:38:49.415Z,2.72
2018-12-26T20:41:17.575Z,3.20
2018-12-26T20:43:45.667Z,2.65
2018-12-26T20:46:13.816Z,2.90
2018-12-26T20:48:41.963Z,3.00
2018-12-26T20:51:10.327Z,2.90
2018-12-26T20:53:38.529Z,2.52
2018-12-26T20:56:06.686Z,2.47
2018-12-26T20:58:34.954Z,2.42
2018-12-26T21:01:03.111Z,2.55
2018-12-26T21:03:31.132Z,2.87
2018-12-26T21:05:59.241Z,3.05
2018-12-26T21:08:27.470Z,2.83
2018-12-26T21:10:55.592Z,2.37
2018-12-26T21:13:23.682Z,2.80
2018-12-26T21:15:51.733Z,2.33
2018-12-26T21:18:19.799Z,3.02
2018-12-26T21:20:49.568Z,2.62
2018-12-26T21:23:18.073Z,2.87
2018-12-26T21:25:46.820Z,2.35
2018-12-26T21:28:15.664Z,2.72
2018-12-26T21:30:43.827Z,2.87
2018-12-26T21:33:11.942Z,2.95
2018-12-26T21:35:40.069Z,2.62
2018-12-26T21:38:08.055Z,2.77
2018-12-26T21:40:36.074Z,3.17
2018-12-26T21:43:04.123Z,3.00
2018-12-26T21:45:32.153Z,2.67
2018-12-26T21:48:00.152Z,2.87
2018-12-26T21:50:28.171Z,2.80
2018-12-26T21:52:56.212Z,2.75
2018-12-26T21:55:24.998Z,2.87
2018-12-26T21:57:53.107Z,3.27
2018-12-26T22:00:21.496Z,2.58
2018-12-26T22:02:49.875Z,2.80
2018-12-26T22:05:17.884Z,2.52
2018-12-26T22:07:46.821Z,2.85
2018-12-26T22:10:14.938Z,2.72
2018-12-26T22:12:43.403Z,2.90
2018-12-26T22:15:11.494Z,2.72
2018-12-26T22:17:40.141Z,2.77
2018-12-26T22:20:08.187Z,2.72
2018-12-26T22:22:36.260Z,2.92
2018-12-26T22:25:04.731Z,2.50
2018-12-26T22:27:32.764Z,2.62
2018-12-26T22:30:01.088Z,2.72
2018-12-26T22:32:30.733Z,2.55
2018-12-26T22:34:59.433Z,2.90
2018-12-26T22:37:27.575Z,2.58
2018-12-26T22:39:55.956Z,2.45
2018-12-26T22:42:25.052Z,2.50
2018-12-26T22:44:53.058Z,2.77
2018-12-26T22:47:21.411Z,2.55
2018-12-26T22:49:49.695Z,2.30
2018-12-26T22:52:17.730Z,2.75
2018-12-26T22:54:45.762Z,2.72
2018-12-26T22:57:14.081Z,2.58
2018-12-26T22:59:42.057Z,2.85
2018-12-26T23:02:10.096Z,2.55
2018-12-26T23:04:38.191Z,2.45
2018-12-26T23:07:06.495Z,2.50
2018-12-26T23:09:34.487Z,2.92
2018-12-26T23:12:02.901Z,2.65
2018-12-26T23:14:30.920Z,2.35
2018-12-26T23:16:59.222Z,2.50
2018-12-26T23:19:27.210Z,2.22
2018-12-26T23:21:55.250Z,2.20
2018-12-26T23:24:24.747Z,2.37
2018-12-26T23:26:52.765Z,2.52
2018-12-26T23:29:20.767Z,2.17
2018-12-26T23:31:48.776Z,2.52
2018-12-26T23:34:16.801Z,2.37
2018-12-26T23:36:44.802Z,2.45
2018-12-26T23:39:12.771Z,2.58
2018-12-26T23:41:41.116Z,2.33
2018-12-26T23:44:10.232Z,2.40
2018-12-26T23:46:38.113Z,2.33
2018-12-26T23:49:06.447Z,2.25
2018-12-26T23:51:34.424Z,2.37
2018-12-26T23:54:02.427Z,2.58
2018-12-26T23:56:30.445Z,2.22
2018-12-26T23:58:58.772Z,2.62
